Time;durP1;ratioP1;P1;durP2;ratioP2;P2;SDS_P1;SDS_P2;PMS_P1;PMS_P2;Temp;Humidity;BMP_temperature;BMP_pressure;BME280_temperature;BME280_humidity;BME280_pressure;Samples;Min_cycle;Max_cycle;Signal;HPM_P1;HPM_P2
2021/08/30 00:02:13;;;;;;;26.05;13.93;;;;;;;21.92;100.00;100322.63;1781137;79;21006;-85
2021/08/30 00:04:39;;;;;;;26.80;13.78;;;;;;;21.91;100.00;100327.66;1781233;79;21057;-86
2021/08/30 00:07:08;;;;;;;20.40;13.08;;;;;;;21.90;100.00;100320.71;1761323;79;21003;-86
2021/08/30 00:09:37;;;;;;;21.27;13.18;;;;;;;21.88;100.00;100325.38;1781178;79;21030;-87
2021/08/30 00:12:06;;;;;;;20.17;13.80;;;;;;;21.87;100.00;100323.75;1780895;79;20978;-86
2021/08/30 00:14:34;;;;;;;19.07;13.08;;;;;;;21.87;100.00;100326.39;1780343;79;21673;-87
2021/08/30 00:17:03;;;;;;;22.13;13.00;;;;;;;21.88;100.00;100326.70;1778359;79;21026;-85
2021/08/30 00:19:34;;;;;;;19.17;13.40;;;;;;;21.86;100.00;100328.23;1775940;80;21070;-87
2021/08/30 00:22:05;;;;;;;21.23;13.40;;;;;;;21.85;100.00;100327.09;1776216;80;20998;-87
2021/08/30 00:24:32;;;;;;;22.35;14.00;;;;;;;21.87;100.00;100323.75;1745675;80;21084;-85
2021/08/30 00:27:01;;;;;;;24.27;13.45;;;;;;;21.87;100.00;100323.75;1775729;80;20989;-86
2021/08/30 00:29:30;;;;;;;22.55;14.60;;;;;;;21.88;100.00;100321.41;1775951;80;21451;-86
2021/08/30 00:31:58;;;;;;;22.05;13.50;;;;;;;21.86;100.00;100320.78;1775838;80;21526;-86
2021/08/30 00:34:27;;;;;;;25.23;13.78;;;;;;;21.85;100.00;100324.44;1775951;80;20971;-86
2021/08/30 00:36:56;;;;;;;22.13;13.65;;;;;;;21.82;100.00;100323.01;1776024;80;21009;-85
2021/08/30 00:39:25;;;;;;;23.62;14.58;;;;;;;21.78;100.00;100323.59;1775904;80;21524;-88
2021/08/30 00:41:54;;;;;;;23.38;13.65;;;;;;;21.75;100.00;100322.16;1775960;80;21050;-84
2021/08/30 00:44:23;;;;;;;20.60;13.62;;;;;;;21.75;100.00;100321.64;1775651;80;20966;-87
2021/08/30 00:46:51;;;;;;;20.25;14.15;;;;;;;21.75;100.00;100323.48;1776060;80;20962;-85
2021/08/30 00:49:19;;;;;;;22.50;14.05;;;;;;;21.71;100.00;100324.39;1745650;80;21018;-88
2021/08/30 00:51:47;;;;;;;17.73;13.90;;;;;;;21.69;100.00;100320.30;1745595;80;21050;-87
2021/08/30 00:54:14;;;;;;;21.12;13.98;;;;;;;21.68;100.00;100320.79;1745467;80;21006;-85
2021/08/30 00:56:43;;;;;;;21.80;14.35;;;;;;;21.67;100.00;100316.50;1745531;80;21292;-85
2021/08/30 00:59:10;;;;;;;25.72;15.15;;;;;;;21.69;100.00;100319.78;1745498;80;21108;-85
2021/08/30 01:01:38;;;;;;;23.92;14.83;;;;;;;21.70;100.00;100317.97;1745690;80;21095;-86
2021/08/30 01:04:08;;;;;;;24.43;14.33;;;;;;;21.67;100.00;100313.05;1775815;80;21877;-88
2021/08/30 01:07:01;;;;;;;21.73;14.83;;;;;;;21.64;100.00;100319.56;1775939;80;20998;-89
2021/08/30 01:09:48;;;;;;;21.52;14.68;;;;;;;21.58;100.00;100311.88;1773073;80;21157;-86
2021/08/30 01:12:31;;;;;;;20.32;14.40;;;;;;;21.55;100.00;100316.72;1775947;80;21093;-83
2021/08/30 01:15:19;;;;;;;27.13;14.68;;;;;;;21.51;100.00;100314.17;1746361;80;21079;-87
2021/08/30 01:17:47;;;;;;;24.30;13.93;;;;;;;21.46;100.00;100319.21;1765418;80;21345;-85
2021/08/30 01:20:58;;;;;;;22.85;15.13;;;;;;;21.40;100.00;100314.17;1775902;80;21493;-86
2021/08/30 01:23:28;;;;;;;21.77;13.85;;;;;;;21.35;100.00;100323.22;1771409;80;21011;-86
2021/08/30 01:25:59;;;;;;;21.97;14.68;;;;;;;21.36;100.00;100324.34;1771912;80;21026;-85
2021/08/30 01:28:35;;;;;;;24.47;15.68;;;;;;;21.34;100.00;100323.74;1772164;80;21104;-86
2021/08/30 01:31:16;;;;;;;20.08;14.93;;;;;;;21.33;100.00;100320.78;1770848;80;21030;-86
2021/08/30 01:33:46;;;;;;;28.75;15.93;;;;;;;21.33;100.00;100318.62;1772783;80;21073;-85
2021/08/30 01:36:14;;;;;;;22.13;13.88;;;;;;;21.34;100.00;100321.09;1745510;80;21081;-85
2021/08/30 01:38:45;;;;;;;20.80;14.10;;;;;;;21.32;100.00;100319.14;1775868;80;21599;-87
2021/08/30 01:41:10;;;;;;;20.17;15.35;;;;;;;21.29;100.00;100315.54;1771463;80;21154;-87
2021/08/30 01:43:38;;;;;;;25.27;15.53;;;;;;;21.24;100.00;100320.09;1775662;80;21037;-84
2021/08/30 01:46:06;;;;;;;27.32;15.65;;;;;;;21.23;100.00;100316.32;1775940;80;21038;-84
2021/08/30 01:48:34;;;;;;;45.38;15.60;;;;;;;21.19;100.00;100317.73;1776096;80;21065;-85
2021/08/30 01:51:03;;;;;;;27.37;15.25;;;;;;;21.17;100.00;100320.55;1775697;80;21029;-87
2021/08/30 01:53:31;;;;;;;25.80;15.30;;;;;;;21.17;100.00;100321.06;1776479;78;21138;-86
2021/08/30 01:56:03;;;;;;;21.20;14.23;;;;;;;21.16;100.00;100316.78;1792789;78;21082;-86
2021/08/30 02:00:57;;;;;;;23.75;14.93;;;;;;;21.10;100.00;100317.88;1778633;79;21014;-85
2021/08/30 02:03:27;;;;;;;19.57;14.23;;;;;;;21.09;100.00;100313.59;1747808;80;21116;-88
2021/08/30 02:06:04;;;;;;;31.05;14.38;;;;;;;21.10;100.00;100315.23;1778406;79;21481;-86
2021/08/30 02:08:34;;;;;;;18.95;13.58;;;;;;;21.14;100.00;100310.85;1747622;80;21030;-85
2021/08/30 02:11:05;;;;;;;24.07;13.80;;;;;;;21.14;100.00;100314.33;1778428;79;21021;-87
2021/08/30 02:13:33;;;;;;;19.35;13.38;;;;;;;21.13;100.00;100314.02;1745225;80;21002;-87
2021/08/30 02:16:02;;;;;;;20.65;12.93;;;;;;;21.15;100.00;100312.49;1778500;79;21021;-85
2021/08/30 02:18:55;;;;;;;21.35;13.28;;;;;;;21.15;100.00;100321.27;1778707;80;21197;-86
2021/08/30 02:21:33;;;;;;;19.27;13.22;;;;;;;21.14;100.00;100320.12;1775742;80;20981;-87
2021/08/30 02:24:32;;;;;;;20.32;13.00;;;;;;;21.15;100.00;100324.41;1778595;80;20997;-84
2021/08/30 02:27:34;;;;;;;20.37;12.37;;;;;;;21.17;100.00;100325.04;1747909;79;20998;-84
2021/08/30 02:30:12;;;;;;;19.62;12.18;;;;;;;21.16;100.00;100318.10;1745275;80;21029;-86
2021/08/30 02:32:42;;;;;;;26.10;13.22;;;;;;;21.15;100.00;100323.08;1772741;79;21789;-85
2021/08/30 02:35:13;;;;;;;29.72;12.70;;;;;;;21.12;100.00;100323.77;1779773;78;20975;-86
2021/08/30 02:37:42;;;;;;;18.67;12.30;;;;;;;21.14;100.00;100320.95;1742462;80;21081;-86
2021/08/30 02:40:12;;;;;;;38.17;13.80;;;;;;;21.14;100.00;100320.12;1775742;80;21003;-86
2021/08/30 02:42:40;;;;;;;21.30;13.13;;;;;;;21.12;100.00;100327.73;1745570;80;20994;-85
2021/08/30 02:45:10;;;;;;;28.32;13.08;;;;;;;21.13;100.00;100319.31;1775817;80;21139;-86
2021/08/30 02:47:39;;;;;;;25.37;12.80;;;;;;;21.12;100.00;100325.09;1778327;79;21036;-84
2021/08/30 02:50:08;;;;;;;22.42;13.00;;;;;;;21.12;100.00;100325.09;1761260;80;21045;-86
2021/08/30 02:52:38;;;;;;;22.77;13.30;;;;;;;21.13;100.00;100325.93;1781213;79;21051;-87
2021/08/30 02:55:06;;;;;;;26.15;13.48;;;;;;;21.12;100.00;100326.42;1761408;80;21105;-87
2021/08/30 02:57:35;;;;;;;27.22;12.37;;;;;;;21.14;100.00;100330.22;1781162;79;21186;-86
2021/08/30 03:00:06;;;;;;;21.55;12.40;;;;;;;21.10;100.00;100333.75;1781146;80;21555;-87
2021/08/30 03:02:34;;;;;;;22.33;12.50;;;;;;;21.07;100.00;100332.00;1776160;80;21061;-89
2021/08/30 03:05:03;;;;;;;33.48;13.35;;;;;;;21.08;100.00;100334.93;1745481;80;21695;-86
2021/08/30 03:07:31;;;;;;;38.60;13.53;;;;;;;21.05;100.00;100329.52;1775646;80;21572;-88
2021/08/30 03:09:59;;;;;;;31.10;13.58;;;;;;;21.04;100.00;100335.82;1775961;80;21970;-89
2021/08/30 03:12:29;;;;;;;37.25;15.63;;;;;;;21.05;100.00;100337.46;1775857;80;20987;-88
2021/08/30 03:15:03;;;;;;;26.33;15.25;;;;;;;21.11;100.00;100334.56;1776194;80;20958;-85
2021/08/30 03:17:31;;;;;;;42.03;17.80;;;;;;;21.12;100.00;100337.00;1769469;79;21040;-87
2021/08/30 03:20:00;;;;;;;22.32;15.80;;;;;;;21.12;100.00;100342.81;1776165;80;21071;-86
2021/08/30 03:22:29;;;;;;;19.10;14.68;;;;;;;21.09;100.00;100344.02;1775882;80;21157;-90
2021/08/30 03:24:59;;;;;;;29.10;14.65;;;;;;;21.03;100.00;100343.95;1745594;80;21049;-85
2021/08/30 03:27:27;;;;;;;25.02;14.20;;;;;;;20.95;100.00;100340.44;1739892;80;21091;-91
2021/08/30 03:29:55;;;;;;;22.25;14.83;;;;;;;20.89;100.00;100346.50;1757489;80;21522;-87
2021/08/30 03:32:23;;;;;;;23.00;15.65;;;;;;;20.86;100.00;100351.36;1777918;80;21031;-88
2021/08/30 03:34:56;;;;;;;21.25;14.40;;;;;;;20.84;100.00;100347.55;1752130;79;21132;-86
2021/08/30 03:37:25;;;;;;;20.27;14.65;;;;;;;20.80;100.00;100352.41;1781182;79;21034;-88
2021/08/30 03:39:55;;;;;;;16.93;14.15;;;;;;;20.74;100.00;100349.20;1781369;79;21597;-88
2021/08/30 03:42:24;;;;;;;20.05;14.15;;;;;;;20.65;100.00;100351.14;1789125;78;21093;-85
2021/08/30 03:44:54;;;;;;;16.80;13.98;;;;;;;20.57;100.00;100354.38;1782060;79;21415;-88
2021/08/30 03:47:24;;;;;;;20.80;14.25;;;;;;;20.51;100.00;100357.27;1768224;79;21078;-88
2021/08/30 03:49:52;;;;;;;20.23;13.68;;;;;;;20.44;100.00;100358.54;1757768;79;21045;-84
2021/08/30 03:52:20;;;;;;;19.12;13.60;;;;;;;20.39;100.00;100362.23;1789121;79;21011;-85
2021/08/30 03:54:47;;;;;;;19.02;13.10;;;;;;;20.36;100.00;100363.94;1782105;79;21098;-88
2021/08/30 03:57:16;;;;;;;22.05;13.43;;;;;;;20.32;100.00;100370.59;1781349;79;21073;-88
2021/08/30 03:59:47;;;;;;;15.38;11.90;;;;;;;20.28;100.00;100367.50;1778224;80;21122;-88
2021/08/30 04:02:16;;;;;;;14.20;11.95;;;;;;;20.27;100.00;100367.17;1730488;80;21066;-89
2021/08/30 04:04:44;;;;;;;20.43;12.13;;;;;;;20.27;100.00;100371.66;1776351;80;21085;-86
2021/08/30 04:07:13;;;;;;;19.20;11.93;;;;;;;20.28;100.00;100374.11;1775893;80;21006;-85
2021/08/30 04:09:40;;;;;;;17.35;10.85;;;;;;;20.31;100.00;100376.91;1745974;80;20994;-87
2021/08/30 04:12:09;;;;;;;14.43;10.70;;;;;;;20.32;100.00;100370.10;1779689;79;20931;-88
2021/08/30 04:14:40;;;;;;;14.95;10.00;;;;;;;20.32;100.00;100372.75;1773779;79;21038;-90
2021/08/30 04:17:07;;;;;;;12.10;10.03;;;;;;;20.34;100.00;100376.52;1775653;78;21033;-86
2021/08/30 04:19:36;;;;;;;13.70;9.58;;;;;;;20.37;100.00;100374.00;1790653;78;20955;-86
2021/08/30 04:22:04;;;;;;;10.53;9.30;;;;;;;20.39;100.00;100377.28;1777299;79;21821;-84
2021/08/30 04:24:31;;;;;;;17.17;9.65;;;;;;;20.41;100.00;100376.60;1772387;79;21020;-86
2021/08/30 04:26:58;;;;;;;11.25;9.10;;;;;;;20.43;100.00;100376.73;1776408;79;20947;-87
2021/08/30 04:29:26;;;;;;;11.25;8.40;;;;;;;20.46;100.00;100382.98;1739417;82;21042;-90
2021/08/30 04:31:54;;;;;;;14.83;8.33;;;;;;;20.50;100.00;100386.07;1807789;79;21591;-88
2021/08/30 04:34:22;;;;;;;12.55;7.75;;;;;;;20.55;100.00;100385.52;1776642;79;21038;-85
2021/08/30 04:36:50;;;;;;;15.03;8.70;;;;;;;20.58;100.00;100387.28;1730940;82;21685;-86
2021/08/30 04:39:18;;;;;;;16.45;9.65;;;;;;;20.64;100.00;100392.30;1723641;83;21428;-87
2021/08/30 04:41:45;;;;;;;14.47;9.05;;;;;;;20.68;100.00;100386.13;1692457;82;21609;-86
2021/08/30 04:44:13;;;;;;;19.35;9.00;;;;;;;20.73;100.00;100390.41;1747392;80;21020;-85
2021/08/30 04:46:40;;;;;;;25.17;8.28;;;;;;;20.81;100.00;100392.94;1775946;79;21001;-86
2021/08/30 04:49:08;;;;;;;17.67;8.98;;;;;;;20.86;100.00;100386.56;1745629;80;21073;-85
2021/08/30 04:51:35;;;;;;;14.95;9.43;;;;;;;20.92;100.00;100384.48;1745308;79;21084;-85
2021/08/30 04:54:02;;;;;;;16.45;9.50;;;;;;;20.99;100.00;100380.58;1745591;79;21979;-89
2021/08/30 04:56:30;;;;;;;15.68;8.73;;;;;;;21.08;100.00;100387.38;1745385;80;21016;-85
2021/08/30 04:58:57;;;;;;;16.50;8.58;;;;;;;21.15;100.00;100383.97;1776003;79;20961;-86
2021/08/30 05:01:25;;;;;;;15.10;8.28;;;;;;;21.22;100.00;100386.16;1775893;79;21088;-84
2021/08/30 05:03:53;;;;;;;14.87;8.68;;;;;;;21.30;100.00;100390.00;1745573;79;21153;-85
2021/08/30 05:06:20;;;;;;;12.80;8.30;;;;;;;21.37;100.00;100383.44;1790833;78;21235;-85
2021/08/30 05:08:48;;;;;;;18.17;8.65;;;;;;;21.43;100.00;100383.47;1779116;80;21050;-86
2021/08/30 05:11:14;;;;;;;14.50;8.33;;;;;;;21.50;100.00;100386.17;1745432;79;21591;-88
2021/08/30 05:13:43;;;;;;;12.30;8.30;;;;;;;21.57;100.00;100387.06;1783995;78;21126;-87
2021/08/30 05:16:11;;;;;;;10.00;7.58;;;;;;;21.65;100.00;100383.95;1769383;79;21541;-86
2021/08/30 05:18:40;;;;;;;16.12;8.73;;;;;;;21.74;100.00;100382.30;1732314;81;21430;-86
2021/08/30 05:21:08;;;;;;;15.65;8.68;;;;;;;21.84;100.00;100379.78;1746630;79;21623;-86
2021/08/30 05:23:35;;;;;;;13.35;8.03;;;;;;;;;;1778095;80;21108;-87
2021/08/30 05:26:02;;;;;;;13.83;8.38;;;;;;;22.03;100.00;100380.40;1777557;80;21128;-85
2021/08/30 05:28:30;;;;;;;14.50;9.10;;;;;;;22.13;100.00;100379.22;1780024;80;21044;-83
2021/08/30 05:30:58;;;;;;;14.73;8.08;;;;;;;22.24;100.00;100375.19;1758737;79;21022;-85
2021/08/30 05:33:25;;;;;;;19.75;8.03;;;;;;;22.34;100.00;100376.44;1779676;79;21061;-85
2021/08/30 05:35:52;;;;;;;13.32;8.45;;;;;;;22.45;100.00;100370.29;1745504;80;21015;-85
2021/08/30 05:38:19;;;;;;;15.60;8.53;;;;;;;22.55;100.00;100367.24;1711149;82;21158;-86
2021/08/30 05:40:46;;;;;;;18.05;8.43;;;;;;;22.64;97.55;100376.13;1766127;79;20991;-86
2021/08/30 05:43:13;;;;;;;8.95;7.60;;;;;;;22.74;100.00;100372.28;1785227;79;21120;-85
2021/08/30 05:45:40;;;;;;;14.07;7.97;;;;;;;22.84;96.50;100376.69;1739675;80;21030;-85
2021/08/30 05:48:07;;;;;;;11.50;8.08;;;;;;;22.93;96.36;100378.13;1772070;79;21061;-84
2021/08/30 05:50:34;;;;;;;10.93;7.97;;;;;;;23.04;97.06;100374.55;1782852;79;21135;-84
2021/08/30 05:53:01;;;;;;;13.28;8.23;;;;;;;23.12;96.82;100373.85;1712327;82;21000;-85
2021/08/30 05:55:28;;;;;;;13.38;8.23;;;;;;;23.22;97.12;100376.64;1770269;79;20961;-86
2021/08/30 05:57:55;;;;;;;10.50;8.10;;;;;;;23.32;99.65;100382.34;1734986;81;21065;-87
2021/08/30 06:00:23;;;;;;;12.03;8.03;;;;;;;23.42;97.25;100379.28;1773447;79;21082;-85
2021/08/30 06:02:50;;;;;;;14.45;8.20;;;;;;;23.51;96.72;100383.86;1709898;82;21791;-86
2021/08/30 06:05:17;;;;;;;16.90;8.03;;;;;;;23.60;99.47;100386.09;1756478;79;20986;-81
2021/08/30 06:07:43;;;;;;;18.17;8.70;;;;;;;23.69;97.87;100388.03;1807608;78;20955;-85
2021/08/30 06:10:14;;;;;;;17.48;8.03;;;;;;;23.80;97.15;100379.92;1732674;81;21838;-87
2021/08/30 06:12:41;;;;;;;14.18;8.05;;;;;;;23.89;98.44;100387.98;1715610;82;21144;-86
2021/08/30 06:15:09;;;;;;;13.98;8.78;;;;;;;23.98;95.21;100386.45;1712518;81;21762;-85
2021/08/30 06:17:37;;;;;;;11.53;8.60;;;;;;;24.05;93.38;100383.25;1719252;83;21105;-86
2021/08/30 06:20:05;;;;;;;15.10;9.05;;;;;;;24.13;96.52;100383.02;1770686;79;21061;-86
2021/08/30 06:22:32;;;;;;;12.88;9.25;;;;;;;24.22;93.95;100381.75;1719331;82;21569;-85
2021/08/30 06:24:59;;;;;;;21.23;9.68;;;;;;;24.34;90.78;100386.39;1782155;79;20971;-86
2021/08/30 06:27:27;;;;;;;24.60;9.63;;;;;;;24.45;87.52;100380.91;1760776;80;20979;-85
2021/08/30 06:29:54;;;;;;;21.77;9.48;;;;;;;24.54;89.91;100388.95;1776179;80;21012;-84
2021/08/30 06:32:21;;;;;;;14.68;9.15;;;;;;;24.62;90.87;100391.36;1775981;80;21060;-85
2021/08/30 06:34:48;;;;;;;14.65;8.98;;;;;;;24.71;95.98;100390.64;1775497;80;21052;-84
2021/08/30 06:37:15;;;;;;;20.20;9.03;;;;;;;24.80;88.00;100394.64;1775563;80;21566;-87
2021/08/30 06:39:43;;;;;;;19.00;10.30;;;;;;;24.91;89.99;100389.17;1775547;80;21151;-85
2021/08/30 06:42:10;;;;;;;14.15;9.40;;;;;;;25.02;88.31;100392.97;1744975;80;20976;-83
2021/08/30 06:44:37;;;;;;;18.87;9.70;;;;;;;25.12;86.11;100391.15;1775252;80;21067;-86
2021/08/30 06:47:06;;;;;;;13.72;9.60;;;;;;;25.21;87.13;100387.19;1745294;80;21103;-86
2021/08/30 06:49:33;;;;;;;18.10;9.48;;;;;;;25.31;85.28;100389.34;1745164;80;21020;-86
2021/08/30 06:52:01;;;;;;;16.82;9.60;;;;;;;25.39;85.27;100388.30;1744801;80;21970;-87
2021/08/30 06:54:28;;;;;;;16.15;10.30;;;;;;;25.48;88.18;100382.45;1775798;80;21061;-86
2021/08/30 06:56:55;;;;;;;15.30;9.43;;;;;;;25.60;83.64;100383.88;1775720;80;21023;-86
2021/08/30 06:59:22;;;;;;;15.68;10.25;;;;;;;25.70;85.28;100386.02;1744990;80;21035;-87
2021/08/30 07:01:49;;;;;;;20.62;11.12;;;;;;;25.81;84.08;100385.80;1775906;80;21023;-86
2021/08/30 07:04:16;;;;;;;18.12;9.90;;;;;;;25.94;84.21;100382.17;1745419;80;21011;-84
2021/08/30 07:06:44;;;;;;;12.80;10.20;;;;;;;26.06;79.55;100384.40;1775953;80;21043;-86
2021/08/30 07:09:11;;;;;;;16.65;10.03;;;;;;;26.18;77.07;100383.16;1776022;80;21043;-87
2021/08/30 07:11:40;;;;;;;17.98;9.95;;;;;;;26.32;73.37;100385.11;1777128;79;21040;-85
2021/08/30 07:14:07;;;;;;;15.08;9.80;;;;;;;26.42;71.92;100389.92;1783412;79;20999;-85
2021/08/30 07:16:35;;;;;;;10.95;9.13;;;;;;;26.53;71.58;100385.66;1759669;80;21166;-86
2021/08/30 07:19:02;;;;;;;13.85;10.72;;;;;;;26.65;70.59;100392.38;1745487;80;21057;-86
2021/08/30 07:21:29;;;;;;;13.72;9.98;;;;;;;26.76;68.25;100395.64;1780770;79;21018;-87
2021/08/30 07:23:57;;;;;;;12.60;10.23;;;;;;;26.88;64.75;100395.67;1745848;80;21018;-86
2021/08/30 07:26:24;;;;;;;12.78;10.48;;;;;;;26.97;65.30;100394.80;1750086;80;21117;-87
2021/08/30 07:28:51;;;;;;;16.45;11.00;;;;;;;27.08;64.31;100394.81;1780894;79;21135;-85
2021/08/30 07:31:19;;;;;;;11.75;9.88;;;;;;;27.16;63.30;100384.30;1778179;79;20982;-87
2021/08/30 07:33:46;;;;;;;16.85;10.55;;;;;;;27.28;61.91;100390.18;1778573;80;21593;-88
2021/08/30 07:36:13;;;;;;;12.45;10.28;;;;;;;27.37;64.29;100389.59;1764397;79;21631;-85
2021/08/30 07:38:41;;;;;;;16.97;10.18;;;;;;;27.47;62.32;100386.89;1723718;80;21834;-84
2021/08/30 07:41:09;;;;;;;15.00;9.33;;;;;;;27.59;60.29;100383.70;1703507;82;21136;-89
2021/08/30 07:43:36;;;;;;;16.50;9.83;;;;;;;27.69;61.70;100385.23;1703081;82;21062;-88
2021/08/30 07:46:03;;;;;;;17.70;10.05;;;;;;;27.83;66.67;100386.34;1717296;82;21587;-86
2021/08/30 07:48:31;;;;;;;15.93;10.70;;;;;;;27.97;65.37;100381.51;1681112;83;21050;-88
2021/08/30 07:50:58;;;;;;;16.52;10.55;;;;;;;28.11;60.82;100382.09;1663518;82;21649;-85
2021/08/30 07:53:30;;;;;;;15.08;9.90;;;;;;;28.23;58.54;100382.87;1684599;83;21109;-84
2021/08/30 07:55:55;;;;;;;13.15;9.85;;;;;;;28.32;61.21;100376.06;1712238;83;21563;-85
2021/08/30 07:58:23;;;;;;;14.00;10.13;;;;;;;28.43;60.68;100377.59;1731255;82;21442;-86
2021/08/30 08:00:51;;;;;;;17.12;10.50;;;;;;;28.53;58.88;100376.44;1734095;81;21510;-85
2021/08/30 08:03:18;;;;;;;15.00;10.60;;;;;;;28.64;56.83;100371.53;1780691;79;21109;-87
2021/08/30 08:05:46;;;;;;;16.87;10.40;;;;;;;28.75;57.67;100376.59;1782368;79;21206;-87
2021/08/30 08:08:13;;;;;;;13.13;9.90;;;;;;;28.86;56.75;100362.83;1778682;79;21073;-87
2021/08/30 08:10:40;;;;;;;14.15;9.98;;;;;;;28.99;56.25;100368.91;1716935;80;20939;-87
2021/08/30 08:13:11;;;;;;;13.95;9.63;;;;;;;29.10;56.39;100368.02;1775464;80;21043;-87
2021/08/30 08:15:39;;;;;;;10.88;9.83;;;;;;;29.20;54.43;100369.52;1745333;80;21056;-88
2021/08/30 08:18:06;;;;;;;12.58;9.65;;;;;;;29.32;53.07;100363.25;1745726;80;21150;-86
2021/08/30 08:20:33;;;;;;;16.40;9.60;;;;;;;29.39;52.72;100359.35;1776113;80;20934;-88
2021/08/30 08:23:03;;;;;;;14.35;10.35;;;;;;;29.47;51.74;100357.30;1775681;80;21029;-87
2021/08/30 08:25:30;;;;;;;11.00;9.10;;;;;;;29.56;50.66;100361.18;1775928;80;21561;-87
2021/08/30 08:28:03;;;;;;;17.37;10.63;;;;;;;29.64;49.44;100354.05;1745345;80;21038;-86
2021/08/30 08:30:28;;;;;;;13.18;9.45;;;;;;;29.74;50.89;100358.72;1771243;80;21157;-85
2021/08/30 08:32:56;;;;;;;18.02;10.20;;;;;;;29.82;50.79;100346.20;1775904;80;21527;-84
2021/08/30 08:35:23;;;;;;;11.60;8.68;;;;;;;29.97;50.26;100347.46;1775810;80;21030;-87
2021/08/30 08:37:50;;;;;;;13.60;9.35;;;;;;;30.07;49.00;100343.55;1775676;80;21045;-88
2021/08/30 08:40:18;;;;;;;14.35;9.65;;;;;;;30.17;48.00;100339.61;1775783;80;21018;-88
2021/08/30 08:42:45;;;;;;;18.40;8.90;;;;;;;30.27;46.24;100336.75;1745200;80;21038;-86
2021/08/30 08:45:16;;;;;;;13.25;8.78;;;;;;;30.34;45.26;100327.95;1775734;80;20954;-86
2021/08/30 08:47:44;;;;;;;16.90;9.48;;;;;;;30.41;44.53;100330.45;1745356;80;21572;-87
2021/08/30 08:50:15;;;;;;;15.83;9.20;;;;;;;30.45;44.54;100332.37;1745156;80;21438;-88
2021/08/30 08:52:43;;;;;;;;;;;;;;;30.50;45.01;100324.89;1778579;80;20943;-87
2021/08/30 08:55:13;;;;;;;10.18;8.83;;;;;;;30.59;44.96;100331.96;1775827;80;21077;-86
2021/08/30 08:57:41;;;;;;;12.80;9.27;;;;;;;30.67;43.97;100324.78;1746193;80;21014;-85
2021/08/30 09:00:12;;;;;;;14.25;9.08;;;;;;;30.73;43.84;100319.70;1745341;80;21539;-86
2021/08/30 09:02:39;;;;;;;9.80;8.08;;;;;;;30.81;44.57;100319.78;1750183;79;21069;-88
2021/08/30 09:05:14;;;;;;;13.22;9.20;;;;;;;30.91;43.18;100319.86;1778071;80;21010;-87
2021/08/30 09:07:42;;;;;;;14.23;8.90;;;;;;;30.99;43.07;100313.17;1743986;80;21816;-87
2021/08/30 09:10:16;;;;;;;9.58;8.10;;;;;;;31.10;44.64;100307.34;1775718;80;20925;-89
2021/08/30 09:12:44;;;;;;;12.70;9.05;;;;;;;31.21;42.15;100312.27;1771488;80;21140;-90
2021/08/30 09:15:20;;;;;;;16.48;9.10;;;;;;;31.29;42.60;100307.19;1746197;80;20970;-83
2021/08/30 09:17:54;;;;;;;15.83;8.95;;;;;;;31.38;42.53;100310.73;1775819;80;21197;-86
2021/08/30 09:20:27;;;;;;;11.97;9.38;;;;;;;31.45;42.58;100303.22;1775746;80;21845;-88
2021/08/30 09:22:54;;;;;;;10.28;9.13;;;;;;;31.52;43.19;100299.75;1744458;80;21010;-92
2021/08/30 09:25:22;;;;;;;16.60;9.60;;;;;;;31.63;43.64;100304.11;1775966;80;21512;-86
2021/08/30 09:27:51;;;;;;;29.70;9.70;;;;;;;31.72;42.50;100298.25;1779055;80;21026;-87
2021/08/30 09:30:26;;;;;;;11.65;9.05;;;;;;;31.81;43.88;100298.52;1781044;79;21038;-91
2021/08/30 09:32:53;;;;;;;13.22;9.30;;;;;;;31.93;41.33;100297.73;1758698;80;21160;-87
2021/08/30 09:35:21;;;;;;;17.55;10.00;;;;;;;32.01;42.40;100296.41;1761207;80;20978;-85
2021/08/30 09:37:49;;;;;;;16.17;10.08;;;;;;;32.08;40.69;100294.27;1781123;80;20966;-86
2021/08/30 09:40:21;;;;;;;12.45;10.18;;;;;;;32.12;40.34;100295.88;1753450;79;21017;-86
2021/08/30 09:42:52;;;;;;;12.78;10.85;;;;;;;32.17;39.33;100292.66;1743414;80;21049;-86
2021/08/30 09:45:22;;;;;;;14.98;10.88;;;;;;;32.21;38.54;100290.24;1775860;80;21600;-86
2021/08/30 09:47:56;;;;;;;14.07;10.40;;;;;;;32.24;38.32;100293.78;1745235;80;20975;-86
2021/08/30 09:50:33;;;;;;;14.65;10.50;;;;;;;32.27;38.89;100286.50;1778316;78;21565;-84
2021/08/30 09:53:03;;;;;;;13.30;10.45;;;;;;;32.33;37.75;100295.39;1734560;82;21062;-85
2021/08/30 09:55:33;;;;;;;15.40;10.45;;;;;;;32.38;39.11;100290.00;1779070;79;21517;-85
2021/08/30 09:58:00;;;;;;;13.03;11.60;;;;;;;32.45;38.56;100290.53;1776166;80;21147;-85
2021/08/30 10:00:29;;;;;;;13.83;10.72;;;;;;;32.52;38.16;100283.53;1775439;79;21260;-85
2021/08/30 10:03:00;;;;;;;16.07;10.80;;;;;;;32.60;38.96;100284.33;1776522;78;21037;-85
2021/08/30 10:05:30;;;;;;;13.75;10.75;;;;;;;32.66;38.19;100285.14;1776254;79;21057;-88
2021/08/30 10:08:00;;;;;;;10.72;9.63;;;;;;;32.71;38.38;100276.52;1736619;79;21576;-87
2021/08/30 10:10:31;;;;;;;13.08;9.25;;;;;;;32.79;37.11;100286.50;1746243;80;21066;-86
2021/08/30 10:13:02;;;;;;;11.88;8.98;;;;;;;32.83;35.29;100283.52;1775903;79;21592;-88
2021/08/30 10:15:31;;;;;;;17.23;9.65;;;;;;;32.80;36.05;100280.03;1791656;79;21015;-88
2021/08/30 10:18:03;;;;;;;14.28;9.05;;;;;;;32.81;36.57;100289.74;1777678;79;20999;-86
2021/08/30 10:20:39;;;;;;;11.12;7.90;;;;;;;32.87;37.22;100282.70;1760319;79;21611;-86
2021/08/30 10:23:09;;;;;;;10.98;8.30;;;;;;;32.96;35.05;100280.27;1728316;78;21069;-88
2021/08/30 10:25:42;;;;;;;14.00;8.15;;;;;;;32.96;34.92;100276.23;1775985;79;21073;-86
2021/08/30 10:28:14;;;;;;;11.48;7.30;;;;;;;32.96;34.92;100276.23;1807894;79;21035;-84
2021/08/30 10:30:55;;;;;;;11.43;7.78;;;;;;;32.98;34.43;100278.64;1775439;78;21038;-86
2021/08/30 10:33:23;;;;;;;;;;;;;;;33.00;33.94;100279.18;1778970;79;21093;-86
2021/08/30 10:35:52;;;;;;;16.55;8.28;;;;;;;33.06;34.58;100275.91;1776845;79;20181;-88
2021/08/30 10:38:24;;;;;;;15.23;7.80;;;;;;;33.10;33.69;100276.98;1776228;79;21557;-86
2021/08/30 10:40:57;;;;;;;12.10;8.08;;;;;;;33.12;33.45;100269.43;1787564;79;20955;-89
2021/08/30 10:43:28;;;;;;;12.90;8.90;;;;;;;33.15;33.58;100271.56;1777608;79;21589;-87
2021/08/30 10:45:58;;;;;;;11.78;7.45;;;;;;;33.17;34.13;100273.45;1678715;82;21081;-86
2021/08/30 10:48:37;;;;;;;14.93;7.92;;;;;;;33.16;33.72;100271.83;1758313;79;21311;-87
2021/08/30 10:51:17;;;;;;;8.70;7.10;;;;;;;33.13;34.96;100269.70;1753714;80;21124;-86
2021/08/30 10:54:07;;;;;;;12.55;7.75;;;;;;;33.10;33.96;100264.84;1769784;79;21173;-89
2021/08/30 10:56:35;;;;;;;12.85;8.10;;;;;;;33.09;33.48;100265.38;1713247;81;21078;-88
2021/08/30 10:59:09;;;;;;;10.43;7.30;;;;;;;33.07;34.43;100269.43;1705108;82;21113;-88
2021/08/30 11:01:42;;;;;;;;;;;;;;;33.09;33.26;100268.63;1716136;82;21825;-87
2021/08/30 11:04:09;;;;;;;9.20;6.80;;;;;;;33.10;34.33;100268.34;1712357;83;20176;-88
2021/08/30 11:06:39;;;;;;;9.70;6.67;;;;;;;33.14;33.43;100257.80;1687258;82;21113;-88
2021/08/30 11:09:18;;;;;;;12.82;7.50;;;;;;;33.18;32.83;100255.63;1717129;82;21263;-85
2021/08/30 11:11:45;;;;;;;10.30;6.97;;;;;;;33.18;33.15;100264.28;1687991;82;21125;-87
2021/08/30 11:14:13;;;;;;;13.98;7.20;;;;;;;33.18;32.81;100254.28;1775597;80;21133;-86
2021/08/30 11:16:40;;;;;;;10.75;7.15;;;;;;;33.15;33.56;100246.77;1745073;80;21090;-86
2021/08/30 11:19:14;;;;;;;15.23;8.23;;;;;;;33.17;32.40;100255.92;1745523;80;21071;-89
2021/08/30 11:21:50;;;;;;;8.10;7.05;;;;;;;33.14;33.19;100244.33;1754227;79;21581;-86
2021/08/30 11:24:35;;;;;;;11.28;6.90;;;;;;;33.14;33.19;100244.33;1799581;79;21011;-85
2021/08/30 11:27:07;;;;;;;9.53;6.35;;;;;;;33.17;33.13;100237.04;1771139;79;21888;-84